Terminal Aerodrome Forecast
Issued by NWS Wilmington, NC

Home | Current Version | Previous Version | Text Only | Print | Product List | Glossary On
Versions: 1 2 3 4 5 6 7 8 9 10 11 12 13 14
000
FTUS42 KILM 010500
TAFILM
TAF
KILM 010536Z 0106/0206 08006KT P6SM VCTS SCT025CB BKN040 OVC120
      TEMPO 0107/0111 3SM SHRA BKN020
     FM011200 08006KT 6SM -SHRA SCT025 BKN060
     FM011700 12008KT P6SM VCTS SCT025 BKN040CB=

USA.gov is the U.S. government's official web portal to all federal, state and local government web resources and services.